createdAt,value
2017-06-26T00:01:08.474Z,43.09
2017-06-26T00:02:18.082Z,43.29
2017-06-26T00:03:28.294Z,43.09
2017-06-26T00:04:38.204Z,43.09
2017-06-26T00:05:47.498Z,43.19
2017-06-26T00:06:57.776Z,43.19
2017-06-26T00:08:07.707Z,43.09
2017-06-26T00:09:17.307Z,43.19
2017-06-26T00:10:27.209Z,43.09
2017-06-26T00:11:36.824Z,43.29
2017-06-26T00:12:46.738Z,43.29
2017-06-26T00:13:56.642Z,43.09
2017-06-26T00:15:06.565Z,43.09
2017-06-26T00:16:16.475Z,43
2017-06-26T00:17:26.087Z,43.19
2017-06-26T00:18:35.685Z,43.19
2017-06-26T00:19:45.611Z,43.19
2017-06-26T00:20:55.888Z,43.29
2017-06-26T00:22:05.806Z,43.09
2017-06-26T00:23:15.418Z,43.19
2017-06-26T00:24:25.334Z,43.09
2017-06-26T00:25:34.630Z,43.19
2017-06-26T00:26:44.858Z,43.48
2017-06-26T00:27:55.122Z,43.09
2017-06-26T00:29:04.453Z,43.68
2017-06-26T00:30:13.754Z,43.68
2017-06-26T00:31:23.671Z,43.68
2017-06-26T00:32:32.990Z,43.58
2017-06-26T00:33:42.601Z,44.06
2017-06-26T00:34:52.847Z,43.87
2017-06-26T00:36:03.067Z,43.87
2017-06-26T00:37:12.670Z,43.87
2017-06-26T00:38:22.285Z,43.87
2017-06-26T00:39:32.203Z,43.96
2017-06-26T00:40:42.428Z,43.87
2017-06-26T00:41:52.333Z,43.77
2017-06-26T00:43:02.250Z,43.77
2017-06-26T00:44:12.470Z,43.68
2017-06-26T00:45:22.679Z,43.96
2017-06-26T00:46:32.598Z,43.96
2017-06-26T00:47:42.822Z,43.68
2017-06-26T00:48:53.049Z,43.68
2017-06-26T00:50:02.971Z,43.87
2017-06-26T00:51:12.581Z,43.77
2017-06-26T00:52:22.183Z,43.58
2017-06-26T00:53:32.114Z,43.58
2017-06-26T00:54:41.718Z,43.58
2017-06-26T00:55:51.635Z,43.85
2017-06-26T00:57:01.230Z,43.85
2017-06-26T00:58:11.148Z,43.65
2017-06-26T00:59:20.765Z,43.75
2017-06-26T01:00:31.015Z,44.26
2017-06-26T01:01:40.937Z,44.23
2017-06-26T01:02:50.235Z,44.13
2017-06-26T01:04:00.150Z,44.13
2017-06-26T01:05:09.148Z,44.23
2017-06-26T01:06:18.763Z,44.04
2017-06-26T01:07:28.061Z,44.04
2017-06-26T01:08:37.963Z,43.95
2017-06-26T01:09:47.869Z,44.04
2017-06-26T01:10:57.476Z,44.04
2017-06-26T01:12:07.690Z,44.04
2017-06-26T01:13:17.309Z,43.95
2017-06-26T01:14:27.253Z,43.95
2017-06-26T01:15:37.183Z,43.95
2017-06-26T01:16:47.111Z,44.04
2017-06-26T01:17:57.333Z,43.85
2017-06-26T01:19:07.251Z,43.95
2017-06-26T01:20:17.480Z,43.95
2017-06-26T01:21:27.380Z,43.85
2017-06-26T01:22:37.296Z,44.23
2017-06-26T01:23:47.530Z,43.95
2017-06-26T01:24:57.447Z,43.95
2017-06-26T01:26:07.364Z,44.04
2017-06-26T01:27:17.577Z,43.95
2017-06-26T01:28:27.799Z,44.04
2017-06-26T01:29:38.007Z,44.43
2017-06-26T01:30:47.914Z,44.13
2017-06-26T01:31:57.534Z,44.04
2017-06-26T01:33:06.527Z,44.04
2017-06-26T01:34:15.505Z,44.04
2017-06-26T01:35:25.411Z,44.43
2017-06-26T01:36:35.019Z,44.04
2017-06-26T01:37:44.626Z,44.04
2017-06-26T01:38:54.550Z,44.43
2017-06-26T01:40:04.801Z,44.43
2017-06-26T01:41:15.039Z,44.23
2017-06-26T01:42:25.257Z,44.04
2017-06-26T01:43:34.850Z,44.04
2017-06-26T01:44:44.759Z,43.95
2017-06-26T01:45:54.661Z,44.04
2017-06-26T01:47:04.568Z,44.43
2017-06-26T01:48:14.786Z,44.33
2017-06-26T01:49:24.687Z,44.33
2017-06-26T01:50:34.584Z,44.23
2017-06-26T01:51:44.204Z,44.33
2017-06-26T01:52:53.496Z,44.33
2017-06-26T01:54:02.799Z,44.23
2017-06-26T01:55:12.717Z,44.33
2017-06-26T01:56:22.319Z,44.23
2017-06-26T01:57:32.274Z,44.33
2017-06-26T01:58:42.196Z,44.23
2017-06-26T01:59:51.787Z,44.23
2017-06-26T02:01:02.013Z,44.23
2017-06-26T02:02:11.927Z,44.13
2017-06-26T02:03:22.136Z,44.23
2017-06-26T02:04:31.736Z,44.13
2017-06-26T02:05:41.340Z,44.13
2017-06-26T02:06:51.030Z,44.23
2017-06-26T02:08:00.650Z,44.13
2017-06-26T02:09:10.866Z,44.13
2017-06-26T02:10:21.076Z,44.33
2017-06-26T02:11:30.381Z,44.31
2017-06-26T02:12:40.295Z,44.23
2017-06-26T02:13:49.588Z,44.13
2017-06-26T02:14:59.509Z,44.33
2017-06-26T02:16:09.118Z,44.33
2017-06-26T02:17:19.040Z,44.21
2017-06-26T02:18:29.255Z,44.21
2017-06-26T02:19:38.545Z,44.4
2017-06-26T02:20:48.460Z,44.31
2017-06-26T02:21:58.669Z,44.21
2017-06-26T02:23:08.880Z,44.21
2017-06-26T02:24:18.796Z,44.4
2017-06-26T02:25:28.720Z,44.4
2017-06-26T02:26:38.617Z,44.5
2017-06-26T02:27:48.228Z,44.31
2017-06-26T02:28:57.825Z,44.4
2017-06-26T02:30:08.052Z,44.5
2017-06-26T02:31:18.273Z,44.5
2017-06-26T02:32:28.182Z,44.21
2017-06-26T02:33:38.113Z,44.5
2017-06-26T02:34:47.710Z,44.31
2017-06-26T02:35:57.315Z,44.5
2017-06-26T02:37:07.268Z,44.5
2017-06-26T02:38:17.479Z,44.31
2017-06-26T02:39:27.696Z,44.21
2017-06-26T02:40:37.949Z,44.5
2017-06-26T02:41:47.555Z,44.31
2017-06-26T02:42:57.464Z,44.5
2017-06-26T02:44:07.403Z,44.5
2017-06-26T02:45:17.623Z,44.31
2017-06-26T02:46:27.541Z,44.31
2017-06-26T02:47:37.765Z,44.5
2017-06-26T02:48:47.367Z,44.31
2017-06-26T02:49:56.670Z,44.31
2017-06-26T02:51:06.275Z,44.21
2017-06-26T02:52:16.188Z,44.4
2017-06-26T02:53:26.412Z,44.4
2017-06-26T02:54:36.627Z,44.5
2017-06-26T02:55:46.535Z,44.31
2017-06-26T02:56:56.456Z,44.4
2017-06-26T02:58:05.746Z,44.4
2017-06-26T02:59:15.656Z,44.4
2017-06-26T03:00:25.257Z,44.31
2017-06-26T03:01:34.861Z,44.31
2017-06-26T03:02:45.091Z,44.31
2017-06-26T03:03:54.700Z,44.7
2017-06-26T03:05:04.620Z,44.7
2017-06-26T03:06:14.541Z,44.79
2017-06-26T03:07:24.458Z,44.89
2017-06-26T03:08:34.061Z,44.89
2017-06-26T03:09:44.324Z,45.18
2017-06-26T03:10:54.545Z,45.18
2017-06-26T03:12:04.451Z,44.7
2017-06-26T03:13:14.056Z,44.6
2017-06-26T03:14:23.962Z,44.79
2017-06-26T03:15:34.178Z,45.08
2017-06-26T03:16:44.090Z,44.6
2017-06-26T03:17:54.372Z,44.89
2017-06-26T03:19:04.591Z,44.98
2017-06-26T03:20:14.197Z,44.98
2017-06-26T03:21:23.486Z,44.98
2017-06-26T03:22:33.701Z,44.98
2017-06-26T03:23:43.914Z,44.98
2017-06-26T03:24:54.131Z,44.98
2017-06-26T03:26:03.760Z,45.08
2017-06-26T03:27:13.373Z,44.98
2017-06-26T03:28:23.278Z,44.98
2017-06-26T03:29:33.184Z,44.89
2017-06-26T03:30:43.086Z,45.08
2017-06-26T03:31:52.689Z,44.7
2017-06-26T03:33:02.916Z,44.89
2017-06-26T03:34:12.577Z,44.89
2017-06-26T03:35:22.797Z,44.98
2017-06-26T03:36:33.019Z,44.98
2017-06-26T03:37:42.631Z,44.89
2017-06-26T03:38:52.544Z,44.98
2017-06-26T03:40:02.481Z,44.89
2017-06-26T03:41:12.080Z,44.98
2017-06-26T03:42:21.675Z,44.98
2017-06-26T03:43:31.289Z,44.98
2017-06-26T03:44:41.203Z,44.98
2017-06-26T03:45:50.815Z,45.08
2017-06-26T03:47:00.726Z,45.08
2017-06-26T03:48:10.641Z,44.98
2017-06-26T03:49:20.550Z,44.98
2017-06-26T03:50:30.456Z,44.98
2017-06-26T03:51:40.365Z,44.98
2017-06-26T03:52:50.578Z,44.98
2017-06-26T03:54:00.790Z,44.98
2017-06-26T03:55:11.031Z,44.89
2017-06-26T03:56:20.941Z,44.98
2017-06-26T03:57:31.151Z,45.08
2017-06-26T03:58:40.753Z,45.08
2017-06-26T03:59:50.356Z,44.98
2017-06-26T04:01:00.266Z,44.98
2017-06-26T04:02:10.484Z,44.98
2017-06-26T04:03:20.687Z,44.98
2017-06-26T04:04:29.998Z,44.89
2017-06-26T04:05:40.231Z,44.89
2017-06-26T04:06:50.159Z,44.98
2017-06-26T04:07:59.513Z,44.98
2017-06-26T04:09:09.425Z,44.98
2017-06-26T04:10:19.350Z,44.98
2017-06-26T04:11:29.590Z,44.98
2017-06-26T04:12:39.801Z,44.98
2017-06-26T04:13:49.107Z,44.89
2017-06-26T04:14:59.012Z,44.98
2017-06-26T04:16:08.618Z,44.98
2017-06-26T04:17:18.517Z,44.98
2017-06-26T04:18:28.144Z,44.79
2017-06-26T04:19:38.048Z,44.79
2017-06-26T04:20:47.950Z,44.7
2017-06-26T04:21:58.180Z,44.89
2017-06-26T04:23:08.087Z,44.89
2017-06-26T04:24:18.017Z,44.89
2017-06-26T04:25:27.649Z,44.7
2017-06-26T04:26:37.872Z,44.79
2017-06-26T04:27:48.098Z,44.79
2017-06-26T04:28:58.004Z,44.79
2017-06-26T04:30:07.907Z,44.89
2017-06-26T04:31:17.893Z,44.79
2017-06-26T04:32:27.821Z,44.6
2017-06-26T04:33:37.732Z,44.7
2017-06-26T04:34:47.832Z,44.79
2017-06-26T04:35:57.450Z,44.7
2017-06-26T04:37:06.763Z,44.7
2017-06-26T04:38:16.671Z,44.7
2017-06-26T04:39:26.894Z,44.7
2017-06-26T04:40:36.497Z,44.79
2017-06-26T04:41:46.101Z,44.79
2017-06-26T04:42:56.332Z,44.5
2017-06-26T04:44:05.634Z,45.08
2017-06-26T04:45:15.840Z,44.89
2017-06-26T04:46:25.444Z,45.08
2017-06-26T04:47:35.372Z,44.98
2017-06-26T04:48:45.583Z,44.89
2017-06-26T04:49:55.185Z,45.18
2017-06-26T04:51:05.407Z,45.08
2017-06-26T04:52:15.620Z,45.08
2017-06-26T04:53:25.230Z,45.08
2017-06-26T04:54:35.479Z,45.08
2017-06-26T04:55:45.396Z,44.98
2017-06-26T04:56:55.327Z,44.98
2017-06-26T04:58:05.553Z,45.18
2017-06-26T04:59:15.780Z,44.89
2017-06-26T05:00:26.003Z,45.08
2017-06-26T05:01:35.912Z,45.08
2017-06-26T05:02:44.903Z,44.98
2017-06-26T05:03:54.809Z,44.79
2017-06-26T05:05:04.723Z,45.08
2017-06-26T05:06:14.670Z,45.08
2017-06-26T05:07:24.604Z,44.89
2017-06-26T05:08:34.527Z,44.98
2017-06-26T05:09:44.445Z,45.08
2017-06-26T05:10:53.729Z,45.08
2017-06-26T05:12:03.961Z,45.08
2017-06-26T05:13:13.275Z,45.08
2017-06-26T05:14:22.870Z,45.28
2017-06-26T05:15:32.489Z,45.28
2017-06-26T05:16:42.397Z,45.28
2017-06-26T05:17:52.337Z,45.35
2017-06-26T05:19:01.959Z,45.18
2017-06-26T05:20:11.550Z,45.08
2017-06-26T05:21:20.850Z,45.47
2017-06-26T05:22:31.080Z,45.37
2017-06-26T05:23:41.303Z,45.57
2017-06-26T05:24:51.225Z,45.54
2017-06-26T05:26:01.443Z,45.28
2017-06-26T05:27:11.681Z,45.37
2017-06-26T05:28:21.596Z,45.35
2017-06-26T05:29:31.503Z,45.74
2017-06-26T05:30:41.712Z,45.18
2017-06-26T05:31:51.937Z,45.76
2017-06-26T05:33:02.187Z,45.66
2017-06-26T05:34:11.482Z,45.08
2017-06-26T05:35:21.106Z,45.28
2017-06-26T05:36:30.743Z,44.89
2017-06-26T05:37:40.665Z,45.08
2017-06-26T05:38:49.974Z,44.79
2017-06-26T05:39:59.581Z,44.7
2017-06-26T05:41:09.208Z,44.72
2017-06-26T05:42:19.118Z,44.98
2017-06-26T05:43:29.040Z,44.72
2017-06-26T05:44:39.275Z,44.43
2017-06-26T05:45:49.195Z,44.62
2017-06-26T05:46:59.116Z,44.23
2017-06-26T05:48:09.035Z,44.23
2017-06-26T05:49:19.252Z,44.53
2017-06-26T05:50:29.241Z,44.23
2017-06-26T05:51:40.328Z,44.23
2017-06-26T05:52:50.273Z,44.33
2017-06-26T05:53:59.892Z,44.43
2017-06-26T05:55:09.499Z,44.04
2017-06-26T05:56:19.401Z,43.96
2017-06-26T05:57:29.047Z,44.16
2017-06-26T05:58:38.974Z,44.35
2017-06-26T05:59:48.577Z,43.77
2017-06-26T06:00:58.488Z,43.77
2017-06-26T06:02:08.717Z,43.68
2017-06-26T06:03:18.339Z,43.68
2017-06-26T06:04:28.247Z,43.87
2017-06-26T06:05:38.164Z,43.96
2017-06-26T06:06:48.089Z,43.87
2017-06-26T06:07:58.050Z,43.77
2017-06-26T06:09:08.272Z,43.77
2017-06-26T06:10:17.572Z,43.7
2017-06-26T06:11:27.497Z,43.31
2017-06-26T06:12:37.116Z,43.31
2017-06-26T06:13:47.025Z,43.48
2017-06-26T06:14:56.328Z,43.12
2017-06-26T06:16:06.261Z,43.21
2017-06-26T06:17:15.554Z,43.21
2017-06-26T06:18:25.229Z,43.21
2017-06-26T06:19:34.942Z,43.31
2017-06-26T06:20:45.164Z,43.31
2017-06-26T06:21:55.381Z,43.31
2017-06-26T06:23:05.594Z,43.21
2017-06-26T06:24:15.497Z,43.21
2017-06-26T06:25:25.411Z,43.31
2017-06-26T06:26:35.324Z,43.31
2017-06-26T06:27:44.342Z,43.33
2017-06-26T06:28:54.557Z,43.21
2017-06-26T06:30:03.846Z,43.33
2017-06-26T06:31:14.085Z,43.23
2017-06-26T06:32:24.305Z,43.04
2017-06-26T06:33:34.212Z,43.04
2017-06-26T06:34:44.141Z,42.94
2017-06-26T06:35:53.755Z,42.94
2017-06-26T06:37:03.054Z,43.13
2017-06-26T06:38:12.965Z,43.33
2017-06-26T06:39:23.188Z,43.23
2017-06-26T06:40:33.098Z,43.04
2017-06-26T06:41:43.305Z,43.13
2017-06-26T06:42:53.213Z,43.13
2017-06-26T06:44:03.120Z,43.23
2017-06-26T06:45:13.033Z,43.21
2017-06-26T06:46:22.952Z,43.31
2017-06-26T06:47:32.858Z,43.33
2017-06-26T06:48:42.782Z,43.23
2017-06-26T06:49:52.701Z,43.04
2017-06-26T06:51:02.607Z,43.23
2017-06-26T06:52:12.559Z,43.13
2017-06-26T06:53:22.469Z,43.13
2017-06-26T06:54:32.702Z,43.13
2017-06-26T06:55:42.620Z,43.23
2017-06-26T06:56:53.592Z,43.13
2017-06-26T06:58:05.856Z,43.33
2017-06-26T06:59:15.773Z,43.23
2017-06-26T07:00:25.369Z,43.23
2017-06-26T07:01:35.582Z,43.33
2017-06-26T07:02:45.187Z,43.23
2017-06-26T07:03:55.112Z,43.23
2017-06-26T07:05:05.018Z,43.13
2017-06-26T07:06:14.920Z,43.13
2017-06-26T07:07:25.136Z,43.23
2017-06-26T07:08:35.716Z,43.23
2017-06-26T07:09:45.923Z,43.23
2017-06-26T07:10:55.217Z,43.23
2017-06-26T07:12:05.125Z,43.23
2017-06-26T07:13:15.349Z,43.04
2017-06-26T07:14:24.949Z,43.04
2017-06-26T07:15:35.172Z,43.52
2017-06-26T07:16:45.093Z,43.43
2017-06-26T07:17:55.021Z,43.43
2017-06-26T07:19:05.244Z,43.13
2017-06-26T07:20:15.153Z,43.52
2017-06-26T07:21:25.087Z,43.23
2017-06-26T07:22:34.999Z,43.23
2017-06-26T07:23:44.902Z,43.13
2017-06-26T07:24:54.842Z,43.23
2017-06-26T07:26:04.757Z,43.13
2017-06-26T07:27:14.657Z,43.04
2017-06-26T07:28:24.290Z,43.13
2017-06-26T07:29:33.290Z,43.04
2017-06-26T07:30:42.901Z,43.04
2017-06-26T07:31:53.132Z,43.43
2017-06-26T07:33:03.057Z,43.33
2017-06-26T07:34:11.749Z,43.23
2017-06-26T07:35:21.366Z,43.04
2017-06-26T07:36:31.595Z,43.13
2017-06-26T07:37:41.243Z,43.13
2017-06-26T07:38:51.162Z,43.04
2017-06-26T07:40:01.078Z,43.23
2017-06-26T07:41:11.306Z,43.23
2017-06-26T07:42:20.923Z,43.13
2017-06-26T07:43:30.534Z,43.43
2017-06-26T07:44:40.161Z,43.52
2017-06-26T07:45:49.779Z,43.43
2017-06-26T07:47:00.028Z,43.52
2017-06-26T07:48:09.987Z,43.43
2017-06-26T07:49:19.899Z,43.62
2017-06-26T07:50:29.202Z,43.72
2017-06-26T07:51:38.495Z,43.72
2017-06-26T07:52:48.434Z,43.72
2017-06-26T07:53:58.047Z,43.72
2017-06-26T07:55:07.968Z,43.72
2017-06-26T07:56:17.888Z,43.62
2017-06-26T07:57:28.128Z,43.62
2017-06-26T07:58:37.745Z,43.52
2017-06-26T07:59:47.660Z,43.72
2017-06-26T08:00:57.581Z,43.62
2017-06-26T08:02:07.514Z,43.72
2017-06-26T08:03:17.441Z,43.43
2017-06-26T08:04:27.418Z,43.52
2017-06-26T08:05:36.729Z,43.26
2017-06-26T08:06:46.991Z,43.54
2017-06-26T08:07:57.227Z,43.45
2017-06-26T08:09:06.853Z,43.54
2017-06-26T08:10:16.783Z,43.16
2017-06-26T08:11:26.708Z,43.16
2017-06-26T08:12:36.336Z,42.67
2017-06-26T08:13:46.565Z,42.77
2017-06-26T08:14:56.499Z,42.6
2017-06-26T08:16:06.437Z,42.77
2017-06-26T08:17:16.674Z,42.5
2017-06-26T08:18:26.915Z,42.79
2017-06-26T08:19:36.532Z,42.96
2017-06-26T08:20:46.776Z,42.96
2017-06-26T08:21:56.720Z,43.26
2017-06-26T08:23:06.945Z,43.35
2017-06-26T08:24:17.605Z,43.26
2017-06-26T08:25:27.543Z,43.16
2017-06-26T08:26:37.473Z,43.06
2017-06-26T08:27:47.084Z,43.26
2017-06-26T08:28:56.380Z,43.16
2017-06-26T08:30:06.297Z,43.54
2017-06-26T08:31:16.248Z,43.64
2017-06-26T08:32:25.873Z,43.45
2017-06-26T08:33:36.112Z,43.35
2017-06-26T08:34:45.433Z,43.54
2017-06-26T08:35:55.378Z,43.64
2017-06-26T08:37:04.994Z,44.13
2017-06-26T08:38:15.219Z,44.13
2017-06-26T08:39:24.562Z,43.93
2017-06-26T08:40:34.493Z,43.84
2017-06-26T08:41:44.441Z,43.93
2017-06-26T08:42:54.670Z,43.93
2017-06-26T08:44:04.887Z,43.91
2017-06-26T08:45:14.834Z,43.93
2017-06-26T08:46:24.777Z,43.93
2017-06-26T08:47:34.696Z,43.82
2017-06-26T08:48:44.924Z,43.93
2017-06-26T08:49:55.166Z,43.82
2017-06-26T08:51:05.107Z,43.72
2017-06-26T08:52:14.721Z,43.84
2017-06-26T08:53:24.668Z,43.64
2017-06-26T08:54:34.899Z,43.74
2017-06-26T08:55:44.499Z,43.74
2017-06-26T08:56:54.117Z,43.72
2017-06-26T08:58:04.337Z,43.74
2017-06-26T08:59:14.245Z,43.84
2017-06-26T09:00:24.245Z,43.74
2017-06-26T09:01:34.208Z,43.84
2017-06-26T09:02:44.441Z,43.84
2017-06-26T09:03:54.058Z,43.84
2017-06-26T09:05:03.069Z,43.93
2017-06-26T09:06:13.297Z,43.84
2017-06-26T09:07:23.220Z,43.84
2017-06-26T09:08:33.467Z,43.84
2017-06-26T09:09:43.436Z,43.84
2017-06-26T09:10:53.683Z,43.84
2017-06-26T09:12:04.174Z,43.74
2017-06-26T09:13:14.403Z,43.84
2017-06-26T09:14:24.639Z,43.74
2017-06-26T09:15:34.866Z,43.74
2017-06-26T09:16:44.486Z,43.93
2017-06-26T09:17:54.396Z,43.84
2017-06-26T09:19:04.612Z,43.84
2017-06-26T09:20:14.548Z,43.84
2017-06-26T09:21:24.473Z,44.03
2017-06-26T09:22:34.703Z,43.74
2017-06-26T09:23:44.921Z,43.84
2017-06-26T09:24:55.159Z,43.74
2017-06-26T09:26:05.110Z,43.74
2017-06-26T09:27:14.724Z,43.93
2017-06-26T09:28:24.644Z,43.93
2017-06-26T09:29:34.569Z,43.74
2017-06-26T09:30:44.799Z,43.74
2017-06-26T09:31:55.041Z,43.93
2017-06-26T09:33:05.261Z,43.93
2017-06-26T09:34:15.195Z,43.93
2017-06-26T09:35:24.523Z,43.93
2017-06-26T09:36:34.450Z,43.93
2017-06-26T09:37:44.389Z,43.64
2017-06-26T09:38:55.005Z,43.54
2017-06-26T09:40:04.936Z,43.54
2017-06-26T09:41:14.560Z,43.64
2017-06-26T09:42:24.816Z,43.16
2017-06-26T09:43:34.755Z,43.16
2017-06-26T09:44:44.382Z,43.26
2017-06-26T09:45:54.309Z,43.35
2017-06-26T09:47:04.259Z,43.54
2017-06-26T09:48:14.194Z,43.54
2017-06-26T09:49:24.423Z,43.45
2017-06-26T09:50:34.059Z,43.64
2017-06-26T09:51:43.981Z,43.45
2017-06-26T09:52:53.916Z,43.54
2017-06-26T09:54:03.540Z,43.16
2017-06-26T09:55:13.145Z,43.57
2017-06-26T09:56:22.455Z,43.54
2017-06-26T09:57:31.763Z,43.54
2017-06-26T09:58:41.678Z,43.54
2017-06-26T09:59:51.599Z,43.54
2017-06-26T10:01:01.533Z,43.26
2017-06-26T10:02:11.452Z,43.35
2017-06-26T10:03:21.677Z,43.64
2017-06-26T10:04:31.288Z,43.74
2017-06-26T10:05:40.598Z,43.64
2017-06-26T10:06:50.570Z,43.74
2017-06-26T10:08:00.493Z,43.64
2017-06-26T10:09:10.113Z,44.03
2017-06-26T10:10:19.438Z,44.03
2017-06-26T10:11:29.695Z,44.03
2017-06-26T10:12:39.619Z,43.84
2017-06-26T10:13:48.962Z,43.74
2017-06-26T10:14:58.893Z,43.84
2017-06-26T10:16:08.202Z,44.03
2017-06-26T10:17:18.137Z,43.93
2017-06-26T10:18:27.462Z,43.93
2017-06-26T10:19:37.704Z,43.93
2017-06-26T10:20:47.638Z,43.93
2017-06-26T10:21:57.893Z,44.03
2017-06-26T10:23:07.837Z,43.93
2017-06-26T10:24:17.800Z,43.93
2017-06-26T10:25:28.054Z,43.93
2017-06-26T10:26:37.982Z,43.93
2017-06-26T10:27:47.608Z,43.93
2017-06-26T10:28:57.530Z,43.93
2017-06-26T10:30:07.762Z,43.93
2017-06-26T10:31:17.073Z,43.93
2017-06-26T10:32:26.979Z,43.93
2017-06-26T10:33:36.609Z,44.03
2017-06-26T10:34:45.915Z,43.84
2017-06-26T10:35:56.157Z,43.84
2017-06-26T10:37:05.784Z,43.93
2017-06-26T10:38:15.734Z,43.84
2017-06-26T10:39:25.369Z,43.74
2017-06-26T10:40:35.032Z,43.74
2017-06-26T10:41:44.964Z,43.64
2017-06-26T10:42:54.889Z,43.45
2017-06-26T10:44:05.151Z,43.47
2017-06-26T10:45:15.401Z,43.57
2017-06-26T10:46:25.028Z,43.27
2017-06-26T10:47:34.948Z,43.18
2017-06-26T10:48:44.560Z,43.18
2017-06-26T10:49:54.172Z,43.27
2017-06-26T10:51:04.086Z,43.27
2017-06-26T10:52:13.743Z,43.27
2017-06-26T10:53:23.666Z,43.37
2017-06-26T10:54:32.982Z,43.27
2017-06-26T10:55:42.898Z,43.18
2017-06-26T10:56:52.819Z,43.18
2017-06-26T10:58:02.455Z,43.27
2017-06-26T10:59:11.755Z,43.27
2017-06-26T11:00:21.984Z,43.08
2017-06-26T11:01:31.286Z,43.16
2017-06-26T11:02:41.207Z,43.18
2017-06-26T11:03:51.439Z,43.18
2017-06-26T11:05:01.375Z,43.18
2017-06-26T11:06:11.007Z,43.18
2017-06-26T11:07:20.929Z,43.08
2017-06-26T11:08:31.153Z,43.27
2017-06-26T11:09:41.086Z,43.37
2017-06-26T11:10:50.704Z,43.37
2017-06-26T11:12:00.646Z,43.37
2017-06-26T11:13:10.867Z,43.37
2017-06-26T11:14:20.192Z,43.37
2017-06-26T11:15:30.426Z,43.37
2017-06-26T11:16:40.652Z,43.37
2017-06-26T11:17:50.571Z,43.37
2017-06-26T11:19:00.482Z,43.37
2017-06-26T11:20:09.786Z,43.37
2017-06-26T11:21:20.021Z,43.37
2017-06-26T11:22:29.635Z,43.37
2017-06-26T11:23:39.890Z,43.37
2017-06-26T11:24:50.118Z,43.37
2017-06-26T11:25:59.734Z,43.37
2017-06-26T11:27:09.056Z,43.27
2017-06-26T11:28:19.302Z,43.37
2017-06-26T11:29:29.221Z,43.37
2017-06-26T11:30:39.139Z,43.47
2017-06-26T11:31:49.050Z,43.37
2017-06-26T11:32:58.681Z,43.37
2017-06-26T11:34:08.288Z,43.27
2017-06-26T11:35:17.584Z,43.27
2017-06-26T11:36:27.511Z,42.99
2017-06-26T11:37:37.453Z,43.08
2017-06-26T11:38:46.766Z,42.99
2017-06-26T11:39:56.991Z,43.08
2017-06-26T11:41:06.297Z,43.37
2017-06-26T11:42:16.531Z,43.37
2017-06-26T11:43:25.544Z,43.18
2017-06-26T11:44:35.167Z,43.18
2017-06-26T11:45:45.086Z,43.57
2017-06-26T11:46:54.698Z,43.18
2017-06-26T11:48:04.338Z,43.27
2017-06-26T11:49:14.245Z,43.27
2017-06-26T11:50:24.161Z,43.37
2017-06-26T11:51:34.072Z,43.27
2017-06-26T11:52:44.306Z,43.08
2017-06-26T11:53:54.532Z,43.27
2017-06-26T11:55:04.451Z,43.57
2017-06-26T11:56:14.049Z,43.57
2017-06-26T11:57:23.338Z,43.47
2017-06-26T11:58:33.257Z,43.57
2017-06-26T11:59:42.557Z,43.57
2017-06-26T12:00:52.478Z,43.66
2017-06-26T12:02:02.706Z,43.18
2017-06-26T12:03:12.637Z,43.08
2017-06-26T12:04:22.572Z,43.18
2017-06-26T12:05:32.189Z,43.18
2017-06-26T12:06:42.105Z,43.18
2017-06-26T12:07:51.732Z,43.18
2017-06-26T12:09:01.337Z,43.08
2017-06-26T12:10:10.351Z,43.08
2017-06-26T12:11:20.582Z,43.18
2017-06-26T12:12:30.808Z,43.18
2017-06-26T12:13:40.423Z,43.37
2017-06-26T12:14:49.418Z,43.37
2017-06-26T12:15:59.026Z,43.37
2017-06-26T12:17:09.250Z,43.27
2017-06-26T12:18:19.172Z,43.18
2017-06-26T12:19:29.085Z,43.37
2017-06-26T12:20:38.729Z,43.18
2017-06-26T12:21:48.330Z,43.18
2017-06-26T12:22:58.240Z,43.18
2017-06-26T12:24:08.155Z,42.99
2017-06-26T12:25:18.068Z,43.18
2017-06-26T12:26:27.975Z,42.99
2017-06-26T12:27:37.588Z,43.18
2017-06-26T12:28:47.818Z,43.08
2017-06-26T12:29:58.116Z,43.27
2017-06-26T12:31:08.074Z,43.37
2017-06-26T12:32:18.296Z,43.37
2017-06-26T12:33:27.914Z,43.37
2017-06-26T12:34:38.148Z,43.37
2017-06-26T12:35:47.449Z,43.37
2017-06-26T12:36:56.767Z,43.27
2017-06-26T12:38:06.379Z,43.27
2017-06-26T12:39:16.604Z,43.37
2017-06-26T12:40:26.541Z,43.37
2017-06-26T12:41:36.826Z,43.37
2017-06-26T12:42:46.737Z,43.37
2017-06-26T12:43:56.947Z,43.37
2017-06-26T12:45:06.849Z,43.37
2017-06-26T12:46:17.074Z,43.37
2017-06-26T12:47:26.994Z,43.27
2017-06-26T12:48:37.246Z,43.27
2017-06-26T12:49:46.848Z,43.37
2017-06-26T12:50:57.109Z,43.18
2017-06-26T12:52:07.342Z,43.08
2017-06-26T12:53:17.280Z,43.01
2017-06-26T12:54:26.586Z,43.08
2017-06-26T12:55:36.199Z,43.08
2017-06-26T12:56:45.809Z,42.99
2017-06-26T12:57:56.059Z,42.99
2017-06-26T12:59:05.985Z,42.99
2017-06-26T13:00:16.204Z,43.01
2017-06-26T13:01:26.447Z,42.99
2017-06-26T13:02:36.372Z,42.99
2017-06-26T13:03:46.611Z,43.08
2017-06-26T13:04:56.826Z,43.1
2017-06-26T13:06:07.047Z,43.08
2017-06-26T13:07:17.277Z,42.99
2017-06-26T13:08:27.192Z,43.08
2017-06-26T13:09:37.411Z,42.99
2017-06-26T13:10:47.628Z,42.99
2017-06-26T13:11:57.557Z,42.99
2017-06-26T13:13:07.820Z,43.2
2017-06-26T13:14:17.427Z,42.99
2017-06-26T13:15:27.027Z,43.18
2017-06-26T13:16:36.633Z,43.18
2017-06-26T13:17:46.554Z,43.08
2017-06-26T13:18:56.466Z,43.08
2017-06-26T13:20:06.393Z,42.89
2017-06-26T13:21:16.329Z,42.89
2017-06-26T13:22:26.552Z,42.89
2017-06-26T13:23:36.790Z,43.18
2017-06-26T13:24:46.706Z,42.89
2017-06-26T13:25:56.951Z,42.91
2017-06-26T13:27:06.874Z,43.1
2017-06-26T13:28:17.095Z,43.08
2017-06-26T13:29:27.006Z,43.01
2017-06-26T13:30:36.941Z,43.08
2017-06-26T13:31:46.857Z,43.1
2017-06-26T13:32:56.186Z,43.08
2017-06-26T13:34:06.124Z,43.08
2017-06-26T13:35:16.060Z,43.37
2017-06-26T13:36:25.997Z,43.37
2017-06-26T13:37:35.931Z,43.37
2017-06-26T13:38:46.162Z,42.99
2017-06-26T13:39:55.779Z,43.37
2017-06-26T13:41:05.418Z,43.47
2017-06-26T13:42:15.334Z,43.47
2017-06-26T13:43:25.560Z,43.37
2017-06-26T13:44:35.475Z,43.37
2017-06-26T13:45:45.079Z,43.3
2017-06-26T13:46:55.006Z,43.37
2017-06-26T13:48:04.924Z,43.27
2017-06-26T13:49:14.846Z,43.27
2017-06-26T13:50:25.094Z,43.37
2017-06-26T13:51:34.708Z,43.49
2017-06-26T13:52:44.033Z,43.4
2017-06-26T13:53:53.959Z,43.37
2017-06-26T13:55:03.601Z,43.37
2017-06-26T13:56:13.620Z,43.37
2017-06-26T13:57:23.546Z,43.37
2017-06-26T13:58:33.153Z,43.27
2017-06-26T13:59:43.058Z,43.37
2017-06-26T14:00:52.991Z,43.47
2017-06-26T14:02:02.907Z,43.37
2017-06-26T14:03:12.820Z,43.37
2017-06-26T14:04:22.753Z,43.37
2017-06-26T14:05:32.370Z,43.37
2017-06-26T14:06:42.289Z,43.37
2017-06-26T14:07:51.889Z,43.37
2017-06-26T14:09:01.726Z,43.37
2017-06-26T14:10:11.025Z,43.27
2017-06-26T14:11:20.030Z,43.37
2017-06-26T14:12:29.330Z,43.37
2017-06-26T14:13:39.247Z,43.37
2017-06-26T14:14:49.475Z,43.37
2017-06-26T14:15:59.717Z,43.37
2017-06-26T14:17:09.326Z,43.47
2017-06-26T14:18:18.632Z,43.4
2017-06-26T14:19:28.548Z,43.37
2017-06-26T14:20:38.482Z,43.08
2017-06-26T14:21:48.117Z,43.18
2017-06-26T14:22:58.035Z,43.08
2017-06-26T14:24:07.967Z,43.18
2017-06-26T14:25:17.903Z,43.27
2017-06-26T14:26:27.827Z,43.18
2017-06-26T14:27:37.471Z,43.18
2017-06-26T14:28:47.134Z,43.37
2017-06-26T14:29:57.361Z,43.37
2017-06-26T14:31:07.592Z,43.37
2017-06-26T14:32:17.514Z,43.4
2017-06-26T14:33:27.622Z,43.47
2017-06-26T14:34:37.697Z,43.37
2017-06-26T14:35:47.627Z,43.37
2017-06-26T14:36:57.555Z,43.27
2017-06-26T14:38:07.821Z,43.37
2017-06-26T14:39:17.771Z,43.27
2017-06-26T14:40:27.709Z,43.37
2017-06-26T14:41:37.350Z,43.37
2017-06-26T14:42:47.005Z,43.4
2017-06-26T14:43:56.643Z,43.18
2017-06-26T14:45:06.609Z,43.18
2017-06-26T14:46:16.294Z,43.1
2017-06-26T14:47:26.338Z,43.08
2017-06-26T14:48:36.164Z,42.99
2017-06-26T14:49:46.232Z,43.01
2017-06-26T14:50:56.519Z,42.99
2017-06-26T14:52:06.442Z,43.08
2017-06-26T14:53:15.747Z,43.08
2017-06-26T14:54:25.399Z,43.08
2017-06-26T14:55:35.113Z,43.08
2017-06-26T14:56:45.371Z,43.1
2017-06-26T14:57:55.314Z,42.99
2017-06-26T14:59:05.287Z,43.08
2017-06-26T15:00:15.278Z,43.08
2017-06-26T15:01:25.250Z,43.1
2017-06-26T15:02:34.552Z,42.99